sensor_id;sensor_type;location;lat;lon;timestamp;pressure;altitude;pressure_sealevel;temperature
82774;BMP280;72508;45.118;20.728;2023-10-31T00:09:53;99994.97;;;19.44
82774;BMP280;72508;45.118;20.728;2023-10-31T00:19:54;99980.38;;;19.41
82774;BMP280;72508;45.118;20.728;2023-10-31T00:29:57;99962.09;;;19.40
82774;BMP280;72508;45.118;20.728;2023-10-31T00:39:58;99948.34;;;19.33
82774;BMP280;72508;45.118;20.728;2023-10-31T00:50:01;99927.59;;;19.11
82774;BMP280;72508;45.118;20.728;2023-10-31T01:00:03;99941.72;;;19.06
82774;BMP280;72508;45.118;20.728;2023-10-31T01:10:05;99922.69;;;18.99
82774;BMP280;72508;45.118;20.728;2023-10-31T01:20:07;99903.19;;;18.85
82774;BMP280;72508;45.118;20.728;2023-10-31T01:30:10;99886.59;;;18.69
82774;BMP280;72508;45.118;20.728;2023-10-31T01:40:12;99880.16;;;18.51
82774;BMP280;72508;45.118;20.728;2023-10-31T01:50:16;99889.16;;;18.50
82774;BMP280;72508;45.118;20.728;2023-10-31T02:00:19;99855.84;;;18.39
82774;BMP280;72508;45.118;20.728;2023-10-31T02:10:21;99859.44;;;18.53
82774;BMP280;72508;45.118;20.728;2023-10-31T02:20:22;99841.63;;;18.59
82774;BMP280;72508;45.118;20.728;2023-10-31T02:30:25;99824.34;;;18.61
82774;BMP280;72508;45.118;20.728;2023-10-31T02:40:27;99798.28;;;18.68
82774;BMP280;72508;45.118;20.728;2023-10-31T02:50:29;99832.72;;;18.73
82774;BMP280;72508;45.118;20.728;2023-10-31T03:00:31;99830.03;;;18.78
82774;BMP280;72508;45.118;20.728;2023-10-31T03:10:32;99770.84;;;18.54
82774;BMP280;72508;45.118;20.728;2023-10-31T03:20:34;99782.16;;;18.89
82774;BMP280;72508;45.118;20.728;2023-10-31T03:30:36;99749.16;;;18.95
82774;BMP280;72508;45.118;20.728;2023-10-31T03:40:38;99760.56;;;18.95
82774;BMP280;72508;45.118;20.728;2023-10-31T03:50:40;99764.88;;;18.91
82774;BMP280;72508;45.118;20.728;2023-10-31T04:00:42;99789.50;;;18.97
82774;BMP280;72508;45.118;20.728;2023-10-31T04:10:44;99837.25;;;18.97
82774;BMP280;72508;45.118;20.728;2023-10-31T04:20:46;99830.19;;;18.87
82774;BMP280;72508;45.118;20.728;2023-10-31T04:30:48;99839.00;;;18.83
82774;BMP280;72508;45.118;20.728;2023-10-31T04:40:50;99865.59;;;18.72
82774;BMP280;72508;45.118;20.728;2023-10-31T04:50:54;99859.47;;;18.77
82774;BMP280;72508;45.118;20.728;2023-10-31T05:00:58;99886.50;;;18.84
82774;BMP280;72508;45.118;20.728;2023-10-31T05:10:59;99885.09;;;18.87
82774;BMP280;72508;45.118;20.728;2023-10-31T05:21:01;99903.25;;;19.03
82774;BMP280;72508;45.118;20.728;2023-10-31T05:31:07;99825.38;;;18.89
82774;BMP280;72508;45.118;20.728;2023-10-31T05:41:09;99799.06;;;18.93
82774;BMP280;72508;45.118;20.728;2023-10-31T05:51:16;99794.91;;;18.87
82774;BMP280;72508;45.118;20.728;2023-10-31T06:01:17;99837.56;;;18.90
82774;BMP280;72508;45.118;20.728;2023-10-31T06:11:19;99863.19;;;19.00
82774;BMP280;72508;45.118;20.728;2023-10-31T06:21:21;99813.06;;;18.98
82774;BMP280;72508;45.118;20.728;2023-10-31T06:31:23;99829.16;;;19.31
82774;BMP280;72508;45.118;20.728;2023-10-31T06:41:24;99820.25;;;19.41
82774;BMP280;72508;45.118;20.728;2023-10-31T06:51:26;99797.13;;;19.60
82774;BMP280;72508;45.118;20.728;2023-10-31T07:01:28;99742.66;;;19.63
82774;BMP280;72508;45.118;20.728;2023-10-31T07:11:30;99763.97;;;19.77
82774;BMP280;72508;45.118;20.728;2023-10-31T07:21:36;99757.69;;;20.00
82774;BMP280;72508;45.118;20.728;2023-10-31T07:31:40;99766.50;;;20.14
82774;BMP280;72508;45.118;20.728;2023-10-31T07:41:43;99729.19;;;20.47
82774;BMP280;72508;45.118;20.728;2023-10-31T07:51:45;99672.13;;;20.67
82774;BMP280;72508;45.118;20.728;2023-10-31T08:01:52;99632.63;;;20.60
82774;BMP280;72508;45.118;20.728;2023-10-31T08:11:54;99682.06;;;20.61
82774;BMP280;72508;45.118;20.728;2023-10-31T08:21:55;99748.06;;;20.59
82774;BMP280;72508;45.118;20.728;2023-10-31T08:31:57;99735.66;;;20.69
82774;BMP280;72508;45.118;20.728;2023-10-31T08:41:59;99684.91;;;20.65
82774;BMP280;72508;45.118;20.728;2023-10-31T08:52:00;99667.25;;;20.83
82774;BMP280;72508;45.118;20.728;2023-10-31T09:02:03;99667.16;;;20.88
82774;BMP280;72508;45.118;20.728;2023-10-31T09:12:08;99670.22;;;21.04
82774;BMP280;72508;45.118;20.728;2023-10-31T09:22:10;99664.69;;;21.23
82774;BMP280;72508;45.118;20.728;2023-10-31T09:32:15;99661.69;;;22.18
82774;BMP280;72508;45.118;20.728;2023-10-31T09:42:17;99656.41;;;22.52
82774;BMP280;72508;45.118;20.728;2023-10-31T09:52:20;99649.44;;;22.17
82774;BMP280;72508;45.118;20.728;2023-10-31T10:02:24;99661.38;;;22.11
82774;BMP280;72508;45.118;20.728;2023-10-31T10:12:28;99654.78;;;22.17
82774;BMP280;72508;45.118;20.728;2023-10-31T10:22:30;99607.56;;;22.17
82774;BMP280;72508;45.118;20.728;2023-10-31T10:32:32;99583.91;;;22.33
82774;BMP280;72508;45.118;20.728;2023-10-31T10:42:44;99541.81;;;23.20
82774;BMP280;72508;45.118;20.728;2023-10-31T10:52:50;99500.84;;;23.08
82774;BMP280;72508;45.118;20.728;2023-10-31T11:02:56;99472.41;;;23.12
82774;BMP280;72508;45.118;20.728;2023-10-31T11:12:58;99474.59;;;23.10
82774;BMP280;72508;45.118;20.728;2023-10-31T11:23:02;99443.88;;;23.03
82774;BMP280;72508;45.118;20.728;2023-10-31T11:33:11;99451.41;;;23.01
82774;BMP280;72508;45.118;20.728;2023-10-31T11:43:13;99447.91;;;23.01
82774;BMP280;72508;45.118;20.728;2023-10-31T11:53:18;99422.06;;;23.22
82774;BMP280;72508;45.118;20.728;2023-10-31T12:03:20;99419.66;;;23.92
82774;BMP280;72508;45.118;20.728;2023-10-31T12:13:26;99387.19;;;24.64
82774;BMP280;72508;45.118;20.728;2023-10-31T12:23:28;99375.47;;;24.81
82774;BMP280;72508;45.118;20.728;2023-10-31T12:33:30;99388.09;;;24.43
82774;BMP280;72508;45.118;20.728;2023-10-31T12:43:32;99387.97;;;24.40
82774;BMP280;72508;45.118;20.728;2023-10-31T12:53:34;99362.22;;;24.47
82774;BMP280;72508;45.118;20.728;2023-10-31T13:03:48;99350.97;;;24.54
82774;BMP280;72508;45.118;20.728;2023-10-31T13:13:52;99352.44;;;24.52
82774;BMP280;72508;45.118;20.728;2023-10-31T13:23:55;99342.59;;;24.56
82774;BMP280;72508;45.118;20.728;2023-10-31T13:33:57;99350.38;;;24.48
82774;BMP280;72508;45.118;20.728;2023-10-31T13:44:03;99342.72;;;24.35
82774;BMP280;72508;45.118;20.728;2023-10-31T13:54:05;99343.25;;;24.16
82774;BMP280;72508;45.118;20.728;2023-10-31T14:04:07;99341.47;;;24.08
82774;BMP280;72508;45.118;20.728;2023-10-31T14:14:09;99321.03;;;24.03
82774;BMP280;72508;45.118;20.728;2023-10-31T14:24:14;99324.94;;;24.06
82774;BMP280;72508;45.118;20.728;2023-10-31T14:34:16;99312.56;;;24.01
82774;BMP280;72508;45.118;20.728;2023-10-31T14:44:18;99267.16;;;23.56
82774;BMP280;72508;45.118;20.728;2023-10-31T14:54:19;99281.16;;;23.52
82774;BMP280;72508;45.118;20.728;2023-10-31T15:04:21;99289.91;;;23.41
82774;BMP280;72508;45.118;20.728;2023-10-31T15:14:22;99270.91;;;23.21
82774;BMP280;72508;45.118;20.728;2023-10-31T15:24:24;99312.16;;;23.12
82774;BMP280;72508;45.118;20.728;2023-10-31T15:34:26;99493.25;;;22.89
82774;BMP280;72508;45.118;20.728;2023-10-31T15:44:32;99546.13;;;22.95
82774;BMP280;72508;45.118;20.728;2023-10-31T15:54:33;99601.78;;;22.24
82774;BMP280;72508;45.118;20.728;2023-10-31T16:04:35;99606.75;;;21.51
82774;BMP280;72508;45.118;20.728;2023-10-31T16:14:37;99682.78;;;21.26
82774;BMP280;72508;45.118;20.728;2023-10-31T16:24:39;99709.38;;;20.89
82774;BMP280;72508;45.118;20.728;2023-10-31T16:34:40;99740.22;;;20.54
82774;BMP280;72508;45.118;20.728;2023-10-31T16:44:44;99744.53;;;20.23
82774;BMP280;72508;45.118;20.728;2023-10-31T16:54:46;99699.03;;;19.96
82774;BMP280;72508;45.118;20.728;2023-10-31T17:04:48;99720.09;;;19.93
82774;BMP280;72508;45.118;20.728;2023-10-31T17:14:50;99728.50;;;19.81
82774;BMP280;72508;45.118;20.728;2023-10-31T17:24:54;99751.31;;;19.68
82774;BMP280;72508;45.118;20.728;2023-10-31T17:34:55;99828.19;;;19.60
82774;BMP280;72508;45.118;20.728;2023-10-31T17:44:57;99771.94;;;19.58
82774;BMP280;72508;45.118;20.728;2023-10-31T17:54:59;99842.28;;;19.41
82774;BMP280;72508;45.118;20.728;2023-10-31T18:05:00;99872.03;;;19.19
82774;BMP280;72508;45.118;20.728;2023-10-31T18:15:04;99891.56;;;19.29
82774;BMP280;72508;45.118;20.728;2023-10-31T18:25:06;99859.88;;;19.13
82774;BMP280;72508;45.118;20.728;2023-10-31T18:35:09;99809.59;;;19.03
82774;BMP280;72508;45.118;20.728;2023-10-31T18:45:11;99884.16;;;19.01
82774;BMP280;72508;45.118;20.728;2023-10-31T18:55:15;99880.34;;;19.13
82774;BMP280;72508;45.118;20.728;2023-10-31T19:05:17;99856.56;;;19.02
82774;BMP280;72508;45.118;20.728;2023-10-31T19:15:19;99896.69;;;18.96
82774;BMP280;72508;45.118;20.728;2023-10-31T19:25:20;99882.03;;;18.74
82774;BMP280;72508;45.118;20.728;2023-10-31T19:35:24;99824.19;;;18.76
82774;BMP280;72508;45.118;20.728;2023-10-31T19:45:26;99872.53;;;18.97
82774;BMP280;72508;45.118;20.728;2023-10-31T19:55:28;99862.88;;;18.83
82774;BMP280;72508;45.118;20.728;2023-10-31T20:05:30;99891.78;;;18.84
82774;BMP280;72508;45.118;20.728;2023-10-31T20:15:32;99885.75;;;18.78
82774;BMP280;72508;45.118;20.728;2023-10-31T20:25:33;99898.56;;;18.71
82774;BMP280;72508;45.118;20.728;2023-10-31T20:35:35;99900.22;;;18.62
82774;BMP280;72508;45.118;20.728;2023-10-31T20:45:37;99892.91;;;18.49
82774;BMP280;72508;45.118;20.728;2023-10-31T20:55:39;99937.47;;;18.47
82774;BMP280;72508;45.118;20.728;2023-10-31T21:05:43;99936.97;;;18.40
82774;BMP280;72508;45.118;20.728;2023-10-31T21:15:44;99953.44;;;18.37
82774;BMP280;72508;45.118;20.728;2023-10-31T21:25:47;99959.88;;;18.25
82774;BMP280;72508;45.118;20.728;2023-10-31T21:35:49;99956.22;;;18.16
82774;BMP280;72508;45.118;20.728;2023-10-31T21:45:50;99956.81;;;18.08
82774;BMP280;72508;45.118;20.728;2023-10-31T21:55:52;99944.09;;;18.05
82774;BMP280;72508;45.118;20.728;2023-10-31T22:05:54;99950.28;;;17.85
82774;BMP280;72508;45.118;20.728;2023-10-31T22:15:56;99985.56;;;17.70
82774;BMP280;72508;45.118;20.728;2023-10-31T22:25:57;100004.16;;;17.60
82774;BMP280;72508;45.118;20.728;2023-10-31T22:35:59;100017.88;;;17.72
82774;BMP280;72508;45.118;20.728;2023-10-31T22:46:01;100043.84;;;17.65
82774;BMP280;72508;45.118;20.728;2023-10-31T22:56:03;100065.06;;;17.50
82774;BMP280;72508;45.118;20.728;2023-10-31T23:06:06;100102.41;;;17.33
82774;BMP280;72508;45.118;20.728;2023-10-31T23:16:08;100121.97;;;17.57
82774;BMP280;72508;45.118;20.728;2023-10-31T23:26:09;100112.16;;;17.22
82774;BMP280;72508;45.118;20.728;2023-10-31T23:36:11;100121.47;;;17.45
82774;BMP280;72508;45.118;20.728;2023-10-31T23:46:13;100128.63;;;17.39
82774;BMP280;72508;45.118;20.728;2023-10-31T23:56:15;100143.97;;;17.32
